createdAt,value
2018-07-22T00:00:31.433Z,21.7
2018-07-22T00:01:33.437Z,21.7
2018-07-22T00:02:35.451Z,21.7
2018-07-22T00:03:37.838Z,21.6
2018-07-22T00:04:39.841Z,21.7
2018-07-22T00:05:41.843Z,21.6
2018-07-22T00:06:44.115Z,21.6
2018-07-22T00:07:46.120Z,21.6
2018-07-22T00:08:48.123Z,21.6
2018-07-22T00:09:50.114Z,21.6
2018-07-22T00:10:52.125Z,21.6
2018-07-22T00:11:54.128Z,21.6
2018-07-22T00:12:56.133Z,21.6
2018-07-22T00:13:58.172Z,21.5
2018-07-22T00:15:00.146Z,21.5
2018-07-22T00:16:02.424Z,21.5
2018-07-22T00:17:04.701Z,21.5
2018-07-22T00:18:07.014Z,21.5
2018-07-22T00:19:09.003Z,21.5
2018-07-22T00:20:11.394Z,21.5
2018-07-22T00:21:13.395Z,21.5
2018-07-22T00:22:15.688Z,21.5
2018-07-22T00:23:17.707Z,21.5
2018-07-22T00:24:19.712Z,21.4
2018-07-22T00:25:22.107Z,21.4
2018-07-22T00:26:24.097Z,21.4
2018-07-22T00:27:26.107Z,21.4
2018-07-22T00:28:28.108Z,21.4
2018-07-22T00:29:30.101Z,21.4
2018-07-22T00:30:32.108Z,21.4
2018-07-22T00:31:34.100Z,21.4
2018-07-22T00:32:36.100Z,21.4
2018-07-22T00:33:38.108Z,21.4
2018-07-22T00:34:40.110Z,21.4
2018-07-22T00:35:42.100Z,21.4
2018-07-22T00:36:44.101Z,21.4
2018-07-22T00:37:46.104Z,21.4
2018-07-22T00:38:48.108Z,21.4
2018-07-22T00:39:50.503Z,21.4
2018-07-22T00:40:52.511Z,21.4
2018-07-22T00:41:54.501Z,21.3
2018-07-22T00:42:56.895Z,21.3
2018-07-22T00:43:58.891Z,21.3
2018-07-22T00:45:01.173Z,21.3
2018-07-22T00:46:03.553Z,21.3
2018-07-22T00:47:05.848Z,21.3
2018-07-22T00:48:08.123Z,21.3
2018-07-22T00:49:10.125Z,21.3
2018-07-22T00:50:12.408Z,21.3
2018-07-22T00:51:15.086Z,21.2
2018-07-22T00:52:17.078Z,21.2
2018-07-22T00:53:19.083Z,21.3
2018-07-22T00:54:21.088Z,21.2
2018-07-22T00:55:23.080Z,21.2
2018-07-22T00:56:25.954Z,21.2
2018-07-22T00:57:27.956Z,21.2
2018-07-22T00:58:30.353Z,21.2
2018-07-22T00:59:32.345Z,21.2
2018-07-22T01:00:34.357Z,21.2
2018-07-22T01:01:36.358Z,21.2
2018-07-22T01:02:38.363Z,21.1
2018-07-22T01:03:40.370Z,21.1
2018-07-22T01:04:42.360Z,21.2
2018-07-22T01:05:44.368Z,21.2
2018-07-22T01:06:46.376Z,21.1
2018-07-22T01:07:48.659Z,21.1
2018-07-22T01:08:50.648Z,21.1
2018-07-22T01:09:52.935Z,21.1
2018-07-22T01:10:54.937Z,21.1
2018-07-22T01:11:56.938Z,21.1
2018-07-22T01:12:59.542Z,21.1
2018-07-22T01:14:01.546Z,21.1
2018-07-22T01:15:03.542Z,21.1
2018-07-22T01:16:05.552Z,21
2018-07-22T01:17:07.550Z,21
2018-07-22T01:18:09.553Z,21
2018-07-22T01:19:11.553Z,21
2018-07-22T01:20:13.830Z,21
2018-07-22T01:21:15.832Z,21
2018-07-22T01:22:18.218Z,21
2018-07-22T01:23:20.225Z,21
2018-07-22T01:24:22.512Z,20.9
2018-07-22T01:25:24.507Z,20.9
2018-07-22T01:26:26.506Z,20.9
2018-07-22T01:27:28.507Z,20.9
2018-07-22T01:28:30.496Z,21
2018-07-22T01:29:32.514Z,20.9
2018-07-22T01:30:34.798Z,20.9
2018-07-22T01:31:37.574Z,20.9
2018-07-22T01:32:39.564Z,20.9
2018-07-22T01:33:41.576Z,20.9
2018-07-22T01:34:43.576Z,20.9
2018-07-22T01:35:45.961Z,20.9
2018-07-22T01:36:47.972Z,20.9
2018-07-22T01:37:49.962Z,20.9
2018-07-22T01:38:52.244Z,20.9
2018-07-22T01:39:54.244Z,20.9
2018-07-22T01:40:56.247Z,20.9
2018-07-22T01:41:58.240Z,20.9
2018-07-22T01:43:00.244Z,20.9
2018-07-22T01:44:02.247Z,20.8
2018-07-22T01:45:04.247Z,20.9
2018-07-22T01:46:06.257Z,20.9
2018-07-22T01:47:08.923Z,20.9
2018-07-22T01:48:10.917Z,20.9
2018-07-22T01:49:12.931Z,20.8
2018-07-22T01:50:14.924Z,20.8
2018-07-22T01:51:16.921Z,20.8
2018-07-22T01:52:18.924Z,20.8
2018-07-22T01:53:20.913Z,20.8
2018-07-22T01:54:22.916Z,20.8
2018-07-22T01:55:24.917Z,20.8
2018-07-22T01:56:26.924Z,20.8
2018-07-22T01:57:28.916Z,20.8
2018-07-22T01:58:30.928Z,20.8
2018-07-22T01:59:32.929Z,20.8
2018-07-22T02:00:34.927Z,20.8
2018-07-22T02:01:36.942Z,20.8
2018-07-22T02:02:39.221Z,20.8
2018-07-22T02:03:41.224Z,20.8
2018-07-22T02:04:43.232Z,20.8
2018-07-22T02:05:45.220Z,20.8
2018-07-22T02:06:47.510Z,20.8
2018-07-22T02:07:49.507Z,20.8
2018-07-22T02:08:51.791Z,20.8
2018-07-22T02:09:54.085Z,20.8
2018-07-22T02:10:56.078Z,20.8
2018-07-22T02:11:58.076Z,20.7
2018-07-22T02:13:00.081Z,20.7
2018-07-22T02:14:02.084Z,20.7
2018-07-22T02:15:04.461Z,20.7
2018-07-22T02:16:06.463Z,20.7
2018-07-22T02:17:08.465Z,20.7
2018-07-22T02:18:10.747Z,20.7
2018-07-22T02:19:12.755Z,20.7
2018-07-22T02:20:14.759Z,20.7
2018-07-22T02:21:17.136Z,20.7
2018-07-22T02:22:19.148Z,20.7
2018-07-22T02:23:21.443Z,20.7
2018-07-22T02:24:23.443Z,20.7
2018-07-22T02:25:25.445Z,20.6
2018-07-22T02:26:27.431Z,20.7
2018-07-22T02:27:29.437Z,20.6
2018-07-22T02:28:31.713Z,20.7
2018-07-22T02:29:33.719Z,20.7
2018-07-22T02:30:35.709Z,20.7
2018-07-22T02:31:37.998Z,20.6
2018-07-22T02:32:40.390Z,20.6
2018-07-22T02:33:42.673Z,20.6
2018-07-22T02:34:44.682Z,20.6
2018-07-22T02:35:46.972Z,20.6
2018-07-22T02:36:49.258Z,20.6
2018-07-22T02:37:51.262Z,20.6
2018-07-22T02:38:53.842Z,20.6
2018-07-22T02:39:56.113Z,20.6
2018-07-22T02:40:58.779Z,20.6
2018-07-22T02:42:01.068Z,20.5
2018-07-22T02:43:03.644Z,20.6
2018-07-22T02:44:05.933Z,20.5
2018-07-22T02:45:08.230Z,20.5
2018-07-22T02:46:10.229Z,20.5
2018-07-22T02:47:12.614Z,20.5
2018-07-22T02:48:14.914Z,20.5
2018-07-22T02:49:17.763Z,20.5
2018-07-22T02:50:20.044Z,20.5
2018-07-22T02:51:22.050Z,20.5
2018-07-22T02:52:24.311Z,20.5
2018-07-22T02:53:26.316Z,20.5
2018-07-22T02:54:28.884Z,20.5
2018-07-22T02:55:30.875Z,20.5
2018-07-22T02:56:32.880Z,20.5
2018-07-22T02:57:34.890Z,20.5
2018-07-22T02:58:37.162Z,20.5
2018-07-22T02:59:39.845Z,20.5
2018-07-22T03:00:41.836Z,20.5
2018-07-22T03:01:43.841Z,20.5
2018-07-22T03:02:45.839Z,20.5
2018-07-22T03:03:48.417Z,20.5
2018-07-22T03:04:50.797Z,20.5
2018-07-22T03:05:52.795Z,20.4
2018-07-22T03:06:55.470Z,20.5
2018-07-22T03:07:58.027Z,20.5
2018-07-22T03:09:00.032Z,20.4
2018-07-22T03:10:02.609Z,20.4
2018-07-22T03:11:04.611Z,20.5
2018-07-22T03:12:06.996Z,20.4
2018-07-22T03:13:09.299Z,20.4
2018-07-22T03:14:11.571Z,20.4
2018-07-22T03:15:13.567Z,20.4
2018-07-22T03:16:16.160Z,20.4
2018-07-22T03:17:18.438Z,20.4
2018-07-22T03:18:20.440Z,20.4
2018-07-22T03:19:22.711Z,20.4
2018-07-22T03:20:24.993Z,20.4
2018-07-22T03:21:27.003Z,20.4
2018-07-22T03:22:29.289Z,20.4
2018-07-22T03:23:32.248Z,20.4
2018-07-22T03:24:34.528Z,20.4
2018-07-22T03:25:36.799Z,20.4
2018-07-22T03:26:38.799Z,20.4
2018-07-22T03:27:41.192Z,20.4
2018-07-22T03:28:43.183Z,20.4
2018-07-22T03:29:45.188Z,20.4
2018-07-22T03:30:48.151Z,20.4
2018-07-22T03:31:50.434Z,20.4
2018-07-22T03:32:52.446Z,20.4
2018-07-22T03:33:54.830Z,20.4
2018-07-22T03:34:56.832Z,20.4
2018-07-22T03:35:58.824Z,20.4
2018-07-22T03:37:00.835Z,20.4
2018-07-22T03:38:02.827Z,20.4
2018-07-22T03:39:04.827Z,20.4
2018-07-22T03:40:06.829Z,20.4
2018-07-22T03:41:09.101Z,20.4
2018-07-22T03:42:11.112Z,20.3
2018-07-22T03:43:13.117Z,20.3
2018-07-22T03:44:15.126Z,20.3
2018-07-22T03:45:17.507Z,20.3
2018-07-22T03:46:19.511Z,20.3
2018-07-22T03:47:21.538Z,20.3
2018-07-22T03:48:23.508Z,20.3
2018-07-22T03:49:25.520Z,20.3
2018-07-22T03:50:27.514Z,20.2
2018-07-22T03:51:29.515Z,20.2
2018-07-22T03:52:31.523Z,20.2
2018-07-22T03:53:33.533Z,20.2
2018-07-22T03:54:35.520Z,20.2
2018-07-22T03:55:37.522Z,20.2
2018-07-22T03:56:39.524Z,20.2
2018-07-22T03:57:41.529Z,20.2
2018-07-22T03:58:43.797Z,20.2
2018-07-22T03:59:45.797Z,20.2
2018-07-22T04:00:47.801Z,20.2
2018-07-22T04:01:49.793Z,20.2
2018-07-22T04:02:52.084Z,20.2
2018-07-22T04:03:54.464Z,20.2
2018-07-22T04:04:56.464Z,20.2
2018-07-22T04:05:58.477Z,20.2
2018-07-22T04:07:00.510Z,20.2
2018-07-22T04:08:02.471Z,20.2
2018-07-22T04:09:04.464Z,20.2
2018-07-22T04:10:06.762Z,20.2
2018-07-22T04:11:08.749Z,20.2
2018-07-22T04:12:10.756Z,20.2
2018-07-22T04:13:12.755Z,20.2
2018-07-22T04:14:14.745Z,20.1
2018-07-22T04:15:16.755Z,20.1
2018-07-22T04:16:18.758Z,20.1
2018-07-22T04:17:21.530Z,20.1
2018-07-22T04:18:23.521Z,20.1
2018-07-22T04:19:25.537Z,20.1
2018-07-22T04:20:27.536Z,20.2
2018-07-22T04:21:29.564Z,20.2
2018-07-22T04:22:31.542Z,20.1
2018-07-22T04:23:33.529Z,20.2
2018-07-22T04:24:35.533Z,20.2
2018-07-22T04:25:37.539Z,20.2
2018-07-22T04:26:39.544Z,20.2
2018-07-22T04:27:41.529Z,20.2
2018-07-22T04:28:44.217Z,20.2
2018-07-22T04:29:46.215Z,20.2
2018-07-22T04:30:48.212Z,20.2
2018-07-22T04:31:50.221Z,20.3
2018-07-22T04:32:52.225Z,20.2
2018-07-22T04:33:54.229Z,20.2
2018-07-22T04:34:56.217Z,20.2
2018-07-22T04:35:58.223Z,20.2
2018-07-22T04:37:00.507Z,20.3
2018-07-22T04:38:02.507Z,20.2
2018-07-22T04:39:04.519Z,20.2
2018-07-22T04:40:06.518Z,20.2
2018-07-22T04:41:08.516Z,20.2
2018-07-22T04:42:10.511Z,20.2
2018-07-22T04:43:12.518Z,20.2
2018-07-22T04:44:14.509Z,20.3
2018-07-22T04:45:16.506Z,20.2
2018-07-22T04:46:18.505Z,20.3
2018-07-22T04:47:20.497Z,20.3
2018-07-22T04:48:22.505Z,20.3
2018-07-22T04:49:24.506Z,20.3
2018-07-22T04:50:26.510Z,20.3
2018-07-22T04:51:28.502Z,20.3
2018-07-22T04:52:30.511Z,20.3
2018-07-22T04:53:32.920Z,20.3
2018-07-22T04:54:35.228Z,20.3
2018-07-22T04:55:37.238Z,20.3
2018-07-22T04:56:39.511Z,20.3
2018-07-22T04:57:41.508Z,20.4
2018-07-22T04:58:43.517Z,20.4
2018-07-22T04:59:45.517Z,20.4
2018-07-22T05:00:47.807Z,20.3
2018-07-22T05:01:50.855Z,20.4
2018-07-22T05:02:53.140Z,20.3
2018-07-22T05:03:55.143Z,20.4
2018-07-22T05:04:57.152Z,20.3
2018-07-22T05:05:59.154Z,20.3
2018-07-22T05:07:01.153Z,20.4
2018-07-22T05:08:03.165Z,20.4
2018-07-22T05:09:05.443Z,20.4
2018-07-22T05:10:07.444Z,20.4
2018-07-22T05:11:09.831Z,20.4
2018-07-22T05:12:12.099Z,20.4
2018-07-22T05:13:14.106Z,20.5
2018-07-22T05:14:16.105Z,20.4
2018-07-22T05:15:18.395Z,20.4
2018-07-22T05:16:21.041Z,20.5
2018-07-22T05:17:23.335Z,20.5
2018-07-22T05:18:25.333Z,20.5
2018-07-22T05:19:27.618Z,20.5
2018-07-22T05:20:29.910Z,20.5
2018-07-22T05:21:31.897Z,20.5
2018-07-22T05:22:33.899Z,20.5
2018-07-22T05:23:35.899Z,20.6
2018-07-22T05:24:38.195Z,20.6
2018-07-22T05:25:40.184Z,20.7
2018-07-22T05:26:42.463Z,20.7
2018-07-22T05:27:44.469Z,20.8
2018-07-22T05:28:46.454Z,20.8
2018-07-22T05:29:48.773Z,20.9
2018-07-22T05:30:50.778Z,20.9
2018-07-22T05:31:53.050Z,21
2018-07-22T05:32:55.050Z,21
2018-07-22T05:33:57.059Z,21
2018-07-22T05:34:59.069Z,21.1
2018-07-22T05:36:01.101Z,21.1
2018-07-22T05:37:03.398Z,21.1
2018-07-22T05:38:05.389Z,21.2
2018-07-22T05:39:07.387Z,21.2
2018-07-22T05:40:09.394Z,21.3
2018-07-22T05:41:11.385Z,21.3
2018-07-22T05:42:13.429Z,21.4
2018-07-22T05:43:15.393Z,21.4
2018-07-22T05:44:17.397Z,21.5
2018-07-22T05:45:19.792Z,21.6
2018-07-22T05:46:21.789Z,21.6
2018-07-22T05:47:24.072Z,21.7
2018-07-22T05:48:26.066Z,21.7
2018-07-22T05:49:28.068Z,21.8
2018-07-22T05:50:30.078Z,21.9
2018-07-22T05:51:32.359Z,21.9
2018-07-22T05:52:34.363Z,21.9
2018-07-22T05:53:36.764Z,21.9
2018-07-22T05:54:38.757Z,22
2018-07-22T05:55:40.756Z,22
2018-07-22T05:56:42.759Z,22.1
2018-07-22T05:57:44.761Z,22
2018-07-22T05:58:46.748Z,22
2018-07-22T05:59:48.748Z,22.1
2018-07-22T06:00:50.753Z,22.1
2018-07-22T06:01:52.744Z,22.1
2018-07-22T06:02:55.141Z,22.1
2018-07-22T06:03:57.143Z,22.1
2018-07-22T06:04:59.140Z,22.1
2018-07-22T06:06:01.830Z,22.2
2018-07-22T06:07:03.847Z,22.2
2018-07-22T06:08:05.839Z,22.2
2018-07-22T06:09:07.840Z,22.2
2018-07-22T06:10:10.122Z,22.3
2018-07-22T06:11:12.115Z,22.2
2018-07-22T06:12:14.534Z,22.3
2018-07-22T06:13:16.544Z,22.3
2018-07-22T06:14:18.534Z,22.3
2018-07-22T06:15:20.543Z,22.3
2018-07-22T06:16:22.548Z,22.4
2018-07-22T06:17:24.550Z,22.4
2018-07-22T06:18:26.561Z,22.4
2018-07-22T06:19:28.561Z,22.4
2018-07-22T06:20:30.564Z,22.5
2018-07-22T06:21:32.561Z,22.4
2018-07-22T06:22:34.574Z,22.5
2018-07-22T06:23:36.573Z,22.5
2018-07-22T06:24:38.568Z,22.6
2018-07-22T06:25:40.573Z,22.6
2018-07-22T06:26:42.574Z,22.6
2018-07-22T06:27:45.514Z,22.6
2018-07-22T06:28:47.799Z,22.6
2018-07-22T06:29:49.797Z,22.6
2018-07-22T06:30:51.811Z,22.6
2018-07-22T06:31:54.186Z,22.7
2018-07-22T06:32:56.191Z,22.7
2018-07-22T06:33:58.203Z,22.7
2018-07-22T06:35:00.193Z,22.7
2018-07-22T06:36:02.207Z,22.7
2018-07-22T06:37:04.211Z,22.7
2018-07-22T06:38:06.213Z,22.8
2018-07-22T06:39:08.796Z,22.8
2018-07-22T06:40:10.811Z,22.8
2018-07-22T06:41:13.206Z,22.8
2018-07-22T06:42:15.190Z,22.8
2018-07-22T06:43:17.577Z,22.9
2018-07-22T06:44:19.577Z,22.9
2018-07-22T06:45:21.962Z,22.9
2018-07-22T06:46:23.972Z,22.9
2018-07-22T06:47:25.967Z,22.9
2018-07-22T06:48:27.973Z,22.9
2018-07-22T06:49:29.978Z,22.9
2018-07-22T06:50:31.979Z,23
2018-07-22T06:51:33.994Z,22.9
2018-07-22T06:52:35.996Z,23
2018-07-22T06:53:38.047Z,23
2018-07-22T06:54:39.995Z,23
2018-07-22T06:55:42.289Z,23
2018-07-22T06:56:44.580Z,23.1
2018-07-22T06:57:46.581Z,23.1
2018-07-22T06:58:48.583Z,23.1
2018-07-22T06:59:50.577Z,23.2
2018-07-22T07:00:52.606Z,23.3
2018-07-22T07:01:54.594Z,23.4
2018-07-22T07:02:56.885Z,23.4
2018-07-22T07:03:58.878Z,23.5
2018-07-22T07:05:01.278Z,23.5
2018-07-22T07:06:03.208Z,23.5
2018-07-22T07:07:05.214Z,23.6
2018-07-22T07:08:07.206Z,23.7
2018-07-22T07:09:09.216Z,23.7
2018-07-22T07:10:11.219Z,23.7
2018-07-22T07:11:13.219Z,23.7
2018-07-22T07:12:15.222Z,23.8
2018-07-22T07:13:17.234Z,23.8
2018-07-22T07:14:19.236Z,23.9
2018-07-22T07:15:21.238Z,23.8
2018-07-22T07:16:23.626Z,23.9
2018-07-22T07:17:26.002Z,23.9
2018-07-22T07:18:28.006Z,23.9
2018-07-22T07:19:30.016Z,23.9
2018-07-22T07:20:32.009Z,24
2018-07-22T07:21:34.304Z,24
2018-07-22T07:22:36.308Z,24
2018-07-22T07:23:38.597Z,24.1
2018-07-22T07:24:40.613Z,24.2
2018-07-22T07:25:42.612Z,24.2
2018-07-22T07:26:44.693Z,24.3
2018-07-22T07:27:46.623Z,24.3
2018-07-22T07:28:48.918Z,24.3
2018-07-22T07:29:51.297Z,24.3
2018-07-22T07:30:53.297Z,24.4
2018-07-22T07:31:55.299Z,24.4
2018-07-22T07:32:57.296Z,24.4
2018-07-22T07:33:59.312Z,24.3
2018-07-22T07:35:01.313Z,24.3
2018-07-22T07:36:03.326Z,24.4
2018-07-22T07:37:05.706Z,24.3
2018-07-22T07:38:08.387Z,24.3
2018-07-22T07:39:10.389Z,24.3
2018-07-22T07:40:12.777Z,24.4
2018-07-22T07:41:14.790Z,24.5
2018-07-22T07:42:16.800Z,24.5
2018-07-22T07:43:18.812Z,24.5
2018-07-22T07:44:20.804Z,24.6
2018-07-22T07:45:22.808Z,24.6
2018-07-22T07:46:24.802Z,24.5
2018-07-22T07:47:27.098Z,24.5
2018-07-22T07:48:29.413Z,24.7
2018-07-22T07:49:31.417Z,24.8
2018-07-22T07:50:33.436Z,24.8
2018-07-22T07:51:35.446Z,24.7
2018-07-22T07:52:37.446Z,24.8
2018-07-22T07:53:39.460Z,24.9
2018-07-22T07:54:41.848Z,24.8
2018-07-22T07:55:43.855Z,24.9
2018-07-22T07:56:45.857Z,25
2018-07-22T07:57:48.138Z,25
2018-07-22T07:58:50.149Z,25
2018-07-22T07:59:52.432Z,25
2018-07-22T08:00:54.439Z,25
2018-07-22T08:01:56.438Z,25.1
2018-07-22T08:02:58.459Z,25.2
2018-07-22T08:04:00.745Z,25.1
2018-07-22T08:05:02.753Z,25.2
2018-07-22T08:06:04.820Z,25.3
2018-07-22T08:07:06.764Z,25.3
2018-07-22T08:08:09.155Z,25.3
2018-07-22T08:09:11.154Z,25.3
2018-07-22T08:10:13.450Z,25.2
2018-07-22T08:11:15.447Z,25.3
2018-07-22T08:12:17.453Z,25.4
2018-07-22T08:13:19.763Z,25.5
2018-07-22T08:14:21.758Z,25.4
2018-07-22T08:15:23.777Z,25.5
2018-07-22T08:16:25.785Z,25.5
2018-07-22T08:17:28.071Z,25.6
2018-07-22T08:18:30.462Z,25.6
2018-07-22T08:19:32.866Z,25.7
2018-07-22T08:20:34.874Z,25.7
2018-07-22T08:21:36.926Z,25.7
2018-07-22T08:22:39.168Z,25.5
2018-07-22T08:23:41.183Z,25.6
2018-07-22T08:24:43.192Z,25.6
2018-07-22T08:25:45.193Z,25.7
2018-07-22T08:26:47.212Z,25.6
2018-07-22T08:27:49.213Z,25.7
2018-07-22T08:28:51.216Z,25.7
2018-07-22T08:29:53.220Z,25.7
2018-07-22T08:30:55.218Z,25.7
2018-07-22T08:31:57.237Z,25.8
2018-07-22T08:32:59.922Z,25.8
2018-07-22T08:34:01.937Z,25.9
2018-07-22T08:35:04.316Z,26
2018-07-22T08:36:06.609Z,26
2018-07-22T08:37:08.617Z,26.1
2018-07-22T08:38:10.621Z,26.1
2018-07-22T08:39:12.637Z,25.9
2018-07-22T08:40:14.635Z,25.8
2018-07-22T08:41:16.731Z,25.8
2018-07-22T08:42:19.026Z,26
2018-07-22T08:43:21.043Z,26
2018-07-22T08:44:23.036Z,26.1
2018-07-22T08:45:25.042Z,26
2018-07-22T08:46:27.055Z,26.2
2018-07-22T08:47:29.052Z,26.2
2018-07-22T08:48:31.069Z,26.3
2018-07-22T08:49:33.074Z,26.2
2018-07-22T08:50:35.079Z,26.1
2018-07-22T08:51:37.645Z,25.9
2018-07-22T08:52:39.663Z,26.1
2018-07-22T08:53:41.668Z,26.3
2018-07-22T08:54:43.674Z,26.4
2018-07-22T08:55:45.683Z,26.5
2018-07-22T08:56:47.681Z,26.6
2018-07-22T08:57:49.694Z,26.6
2018-07-22T08:58:51.995Z,26.8
2018-07-22T08:59:53.988Z,26.7
2018-07-22T09:00:56.007Z,26.6
2018-07-22T09:01:58.575Z,26.5
2018-07-22T09:03:00.582Z,26.5
2018-07-22T09:04:02.605Z,26.6
2018-07-22T09:05:04.609Z,26.8
2018-07-22T09:06:06.898Z,27.1
2018-07-22T09:07:08.905Z,27.2
2018-07-22T09:08:11.219Z,27.1
2018-07-22T09:09:13.483Z,27.1
2018-07-22T09:10:15.877Z,27.1
2018-07-22T09:11:17.884Z,27.3
2018-07-22T09:12:20.162Z,27.4
2018-07-22T09:13:22.180Z,27.4
2018-07-22T09:14:24.189Z,27.7
2018-07-22T09:15:26.219Z,27.8
2018-07-22T09:16:28.221Z,27.7
2018-07-22T09:17:30.516Z,27.8
2018-07-22T09:18:32.527Z,27.9
2018-07-22T09:19:34.532Z,27.8
2018-07-22T09:20:36.550Z,27.8
2018-07-22T09:21:38.932Z,28
2018-07-22T09:22:41.224Z,28.1
2018-07-22T09:23:43.240Z,28.4
2018-07-22T09:24:45.255Z,28.6
2018-07-22T09:25:47.554Z,28.8
2018-07-22T09:26:49.951Z,28.5
2018-07-22T09:27:51.960Z,28.3
2018-07-22T09:28:53.972Z,28.4
2018-07-22T09:29:55.993Z,28.4
2018-07-22T09:30:58.005Z,28.5
2018-07-22T09:32:00.014Z,28.5
2018-07-22T09:33:02.032Z,28.6
2018-07-22T09:34:04.037Z,28.8
2018-07-22T09:35:06.044Z,29.1
2018-07-22T09:36:08.124Z,28.7
2018-07-22T09:37:10.078Z,29.1
2018-07-22T09:38:12.088Z,29.1
2018-07-22T09:39:14.098Z,29.2
2018-07-22T09:40:16.105Z,29.3
2018-07-22T09:41:18.128Z,29.4
2018-07-22T09:42:20.131Z,29.1
2018-07-22T09:43:22.141Z,29.3
2018-07-22T09:44:24.156Z,29.5
2018-07-22T09:45:26.161Z,29.4
2018-07-22T09:46:28.181Z,29
2018-07-22T09:47:30.490Z,29.4
2018-07-22T09:48:32.510Z,29.5
2018-07-22T09:49:34.512Z,29.2
2018-07-22T09:50:36.539Z,29.3
2018-07-22T09:51:38.555Z,29.4
2018-07-22T09:52:40.842Z,29.2
2018-07-22T09:53:43.649Z,29.4
2018-07-22T09:54:45.894Z,29.7
2018-07-22T09:55:47.902Z,30
2018-07-22T09:56:50.305Z,30
2018-07-22T09:57:52.599Z,30
2018-07-22T09:58:54.603Z,30.3
2018-07-22T09:59:56.895Z,30.1
2018-07-22T10:00:58.906Z,30.1
2018-07-22T10:02:00.918Z,30
2018-07-22T10:03:02.946Z,30.1
2018-07-22T10:04:04.961Z,30.2
2018-07-22T10:05:07.534Z,30
2018-07-22T10:06:09.559Z,30.5
2018-07-22T10:07:11.572Z,30.6
2018-07-22T10:08:14.170Z,30.4
2018-07-22T10:09:16.180Z,30.2
2018-07-22T10:10:18.955Z,29.9
2018-07-22T10:11:20.973Z,29.8
2018-07-22T10:12:22.996Z,29.8
2018-07-22T10:13:25.579Z,30.1
2018-07-22T10:14:28.042Z,30.4
2018-07-22T10:15:30.043Z,30.5
2018-07-22T10:16:32.339Z,30.4
2018-07-22T10:17:34.407Z,30.5
2018-07-22T10:18:36.381Z,30.5
2018-07-22T10:19:38.382Z,30.5
2018-07-22T10:20:40.784Z,30.5
2018-07-22T10:21:43.201Z,30.1
2018-07-22T10:22:45.518Z,30
2018-07-22T10:23:47.523Z,29.8
2018-07-22T10:24:49.535Z,29.8
2018-07-22T10:25:51.554Z,29.6
2018-07-22T10:26:53.558Z,29.5
2018-07-22T10:27:55.582Z,29.6
2018-07-22T10:28:57.596Z,29.8
2018-07-22T10:29:59.605Z,29.8
2018-07-22T10:31:01.620Z,29.7
2018-07-22T10:32:03.643Z,29.5
2018-07-22T10:33:06.044Z,29.3
2018-07-22T10:34:08.060Z,29.3
2018-07-22T10:35:10.076Z,29.6
2018-07-22T10:36:12.081Z,29.5
2018-07-22T10:37:14.098Z,29.5
2018-07-22T10:38:17.341Z,29.5
2018-07-22T10:39:19.923Z,29.7
2018-07-22T10:40:21.945Z,29.8
2018-07-22T10:41:23.964Z,29.6
2018-07-22T10:42:25.978Z,29.6
2018-07-22T10:43:28.004Z,29.5
2018-07-22T10:44:30.016Z,29.6
2018-07-22T10:45:32.038Z,29.7
2018-07-22T10:46:34.050Z,29.8
2018-07-22T10:47:36.075Z,29.8
2018-07-22T10:48:38.466Z,30
2018-07-22T10:49:40.483Z,30.3
2018-07-22T10:50:42.781Z,30.5
2018-07-22T10:51:44.801Z,30.6
2018-07-22T10:52:47.082Z,30.7
2018-07-22T10:53:49.100Z,30.6
2018-07-22T10:54:51.115Z,30.6
2018-07-22T10:55:53.141Z,30.4
2018-07-22T10:56:55.143Z,30.5
2018-07-22T10:57:57.159Z,30.4
2018-07-22T10:58:59.181Z,30.2
2018-07-22T11:00:01.187Z,30
2018-07-22T11:01:03.209Z,29.9
2018-07-22T11:02:05.222Z,30.3
2018-07-22T11:03:07.518Z,30.1
2018-07-22T11:04:09.533Z,30.3
2018-07-22T11:05:11.558Z,30.4
2018-07-22T11:06:13.576Z,30.3
2018-07-22T11:07:15.875Z,30.6
2018-07-22T11:08:17.892Z,30.5
2018-07-22T11:09:19.900Z,30.6
2018-07-22T11:10:21.918Z,30.5
2018-07-22T11:11:23.934Z,30.5
2018-07-22T11:12:25.937Z,30.6
2018-07-22T11:13:27.960Z,30
2018-07-22T11:14:30.058Z,30.1
2018-07-22T11:15:32.422Z,30.4
2018-07-22T11:16:34.450Z,30.5
2018-07-22T11:17:36.461Z,30.6
2018-07-22T11:18:38.479Z,31
2018-07-22T11:19:40.497Z,31
2018-07-22T11:20:42.518Z,31
2018-07-22T11:21:44.522Z,31
2018-07-22T11:22:46.543Z,31.2
2018-07-22T11:23:48.562Z,31
2018-07-22T11:24:50.947Z,30.5
2018-07-22T11:25:52.969Z,31
2018-07-22T11:26:54.988Z,31.3
2018-07-22T11:27:57.008Z,31.5
2018-07-22T11:28:59.395Z,31.6
2018-07-22T11:30:01.748Z,31.5
2018-07-22T11:31:04.042Z,31.5
2018-07-22T11:32:06.066Z,31.8
2018-07-22T11:33:08.078Z,31.6
2018-07-22T11:34:10.108Z,31.9
2018-07-22T11:35:12.121Z,32
2018-07-22T11:36:14.138Z,32.2
2018-07-22T11:37:16.155Z,31.9
2018-07-22T11:38:18.184Z,32.3
2018-07-22T11:39:20.201Z,32
2018-07-22T11:40:22.520Z,32.3
2018-07-22T11:41:24.537Z,31.8
2018-07-22T11:42:26.932Z,32.3
2018-07-22T11:43:28.951Z,32.3
2018-07-22T11:44:30.972Z,32.5
2018-07-22T11:45:32.979Z,32.4
2018-07-22T11:46:35.001Z,32.3
2018-07-22T11:47:37.021Z,32.4
2018-07-22T11:48:39.037Z,32.3
2018-07-22T11:49:41.072Z,32.1
2018-07-22T11:50:43.119Z,32
2018-07-22T11:51:45.771Z,32.2
2018-07-22T11:52:47.789Z,32.3
2018-07-22T11:53:49.825Z,32.5
2018-07-22T11:54:51.829Z,32.3
2018-07-22T11:55:54.234Z,32.4
2018-07-22T11:56:56.260Z,32.4
2018-07-22T11:57:58.271Z,32.5
2018-07-22T11:59:00.577Z,32.1
2018-07-22T12:00:03.198Z,31.5
2018-07-22T12:01:05.207Z,31.9
2018-07-22T12:02:07.225Z,32.2
2018-07-22T12:03:09.257Z,32.2
2018-07-22T12:04:11.279Z,31.9
2018-07-22T12:05:13.294Z,32.5
2018-07-22T12:06:15.348Z,32.4
2018-07-22T12:07:17.704Z,32.2
2018-07-22T12:08:19.995Z,32.5
2018-07-22T12:09:22.016Z,32.8
2018-07-22T12:10:24.034Z,32.5
2018-07-22T12:11:26.063Z,32.5
2018-07-22T12:12:28.443Z,32.7
2018-07-22T12:13:30.414Z,32.4
2018-07-22T12:14:32.430Z,32.5
2018-07-22T12:15:34.438Z,32.2
2018-07-22T12:16:36.840Z,32.7
2018-07-22T12:17:38.866Z,32.4
2018-07-22T12:18:40.875Z,32.4
2018-07-22T12:19:42.902Z,32.4
2018-07-22T12:20:44.925Z,32.1
2018-07-22T12:21:46.943Z,32.2
2018-07-22T12:22:48.975Z,31.9
2018-07-22T12:23:50.991Z,32.1
2018-07-22T12:24:53.013Z,31.9
2018-07-22T12:25:55.028Z,31.7
2018-07-22T12:26:57.057Z,31.5
2018-07-22T12:27:59.105Z,31.1
2018-07-22T12:29:01.110Z,30.8
2018-07-22T12:30:03.415Z,30.9
2018-07-22T12:31:05.423Z,31
2018-07-22T12:32:07.730Z,30.7
2018-07-22T12:33:09.749Z,31.1
2018-07-22T12:34:12.191Z,31
2018-07-22T12:35:14.226Z,31
2018-07-22T12:36:16.260Z,31.2
2018-07-22T12:37:18.563Z,31.4
2018-07-22T12:38:20.579Z,31.7
2018-07-22T12:39:22.674Z,31.7
2018-07-22T12:40:24.725Z,31.5
2018-07-22T12:41:26.699Z,31.9
2018-07-22T12:42:28.723Z,32.2
2018-07-22T12:43:30.740Z,32.3
2018-07-22T12:44:32.744Z,32.3
2018-07-22T12:45:35.065Z,32.5
2018-07-22T12:46:37.216Z,32.3
2018-07-22T12:47:39.102Z,31.9
2018-07-22T12:48:41.412Z,31.7
2018-07-22T12:49:43.710Z,31.9
2018-07-22T12:50:46.106Z,32.3
2018-07-22T12:51:48.138Z,32.5
2018-07-22T12:52:50.453Z,32.2
2018-07-22T12:53:52.503Z,32.5
2018-07-22T12:54:54.492Z,32.5
2018-07-22T12:55:56.498Z,32.6
2018-07-22T12:56:58.523Z,32.6
2018-07-22T12:58:00.541Z,32.3
2018-07-22T12:59:02.846Z,32.5
2018-07-22T13:00:05.140Z,32.4
2018-07-22T13:01:07.447Z,33
2018-07-22T13:02:09.465Z,32.8
2018-07-22T13:03:11.486Z,32.6
2018-07-22T13:04:13.526Z,32.2
2018-07-22T13:05:15.539Z,32.5
2018-07-22T13:06:17.554Z,32.3
2018-07-22T13:07:19.857Z,32.3
2018-07-22T13:08:21.886Z,32.5
2018-07-22T13:09:24.334Z,32.8
2018-07-22T13:10:26.763Z,32.8
2018-07-22T13:11:28.789Z,32.7
2018-07-22T13:12:30.799Z,32.6
2018-07-22T13:13:32.831Z,32.9
2018-07-22T13:14:35.130Z,32.8
2018-07-22T13:15:37.142Z,32.6
2018-07-22T13:16:39.161Z,32.7
2018-07-22T13:17:41.191Z,32.6
2018-07-22T13:18:43.216Z,32.7
2018-07-22T13:19:45.236Z,32.4
2018-07-22T13:20:47.550Z,32.6
2018-07-22T13:21:49.562Z,32.4
2018-07-22T13:22:51.577Z,33
2018-07-22T13:23:53.593Z,33.3
2018-07-22T13:24:55.912Z,32.6
2018-07-22T13:25:58.310Z,32.7
2018-07-22T13:27:00.335Z,33.1
2018-07-22T13:28:02.354Z,33.3
2018-07-22T13:29:04.364Z,33
2018-07-22T13:30:06.395Z,33
2018-07-22T13:31:08.694Z,33
2018-07-22T13:32:11.005Z,32.5
2018-07-22T13:33:13.019Z,32.6
2018-07-22T13:34:15.057Z,32.6
2018-07-22T13:35:17.363Z,32.7
2018-07-22T13:36:19.386Z,32.3
2018-07-22T13:37:22.091Z,32
2018-07-22T13:38:24.258Z,31.7
2018-07-22T13:39:26.130Z,31.5
2018-07-22T13:40:28.147Z,31.6
2018-07-22T13:41:30.183Z,31.7
2018-07-22T13:42:32.192Z,31.8
2018-07-22T13:43:34.228Z,31.7
2018-07-22T13:44:36.249Z,31.6
2018-07-22T13:45:38.259Z,31.4
2018-07-22T13:46:40.285Z,31.2
2018-07-22T13:47:42.309Z,31.3
2018-07-22T13:48:44.324Z,30.7
2018-07-22T13:49:46.348Z,30.6
2018-07-22T13:50:48.378Z,30.4